sensor_id;sensor_type;location;lat;lon;timestamp;P1;durP1;ratioP1;P2;durP2;ratioP2
3337;SDS011;1682;49.286;10.788;2023-03-01T00:01:00;17.90;;;10.60;;
3337;SDS011;1682;49.286;10.788;2023-03-01T00:03:29;14.27;;;8.30;;
3337;SDS011;1682;49.286;10.788;2023-03-01T00:05:56;13.37;;;10.40;;
3337;SDS011;1682;49.286;10.788;2023-03-01T00:08:24;18.63;;;10.03;;
3337;SDS011;1682;49.286;10.788;2023-03-01T00:10:59;19.03;;;9.67;;
3337;SDS011;1682;49.286;10.788;2023-03-01T00:13:27;13.07;;;9.90;;
3337;SDS011;1682;49.286;10.788;2023-03-01T00:15:54;13.83;;;9.90;;
3337;SDS011;1682;49.286;10.788;2023-03-01T00:18:21;16.70;;;9.50;;
3337;SDS011;1682;49.286;10.788;2023-03-01T00:20:53;14.13;;;9.40;;
3337;SDS011;1682;49.286;10.788;2023-03-01T00:23:21;12.23;;;8.17;;
3337;SDS011;1682;49.286;10.788;2023-03-01T00:25:48;12.97;;;8.67;;
3337;SDS011;1682;49.286;10.788;2023-03-01T00:28:15;15.53;;;9.67;;
3337;SDS011;1682;49.286;10.788;2023-03-01T00:30:43;12.10;;;9.50;;
3337;SDS011;1682;49.286;10.788;2023-03-01T00:33:10;11.50;;;9.53;;
3337;SDS011;1682;49.286;10.788;2023-03-01T00:35:37;15.30;;;9.50;;
3337;SDS011;1682;49.286;10.788;2023-03-01T00:38:06;13.27;;;10.77;;
3337;SDS011;1682;49.286;10.788;2023-03-01T00:40:33;12.07;;;9.10;;
3337;SDS011;1682;49.286;10.788;2023-03-01T00:43:01;13.47;;;8.80;;
3337;SDS011;1682;49.286;10.788;2023-03-01T00:45:28;14.90;;;9.80;;
3337;SDS011;1682;49.286;10.788;2023-03-01T00:47:57;15.00;;;10.77;;
3337;SDS011;1682;49.286;10.788;2023-03-01T00:50:24;16.40;;;10.47;;
3337;SDS011;1682;49.286;10.788;2023-03-01T00:52:52;14.50;;;9.93;;
3337;SDS011;1682;49.286;10.788;2023-03-01T00:55:21;17.10;;;11.40;;
3337;SDS011;1682;49.286;10.788;2023-03-01T00:57:48;10.93;;;9.30;;
3337;SDS011;1682;49.286;10.788;2023-03-01T01:00:16;15.27;;;8.50;;
3337;SDS011;1682;49.286;10.788;2023-03-01T01:02:43;14.77;;;8.80;;
3337;SDS011;1682;49.286;10.788;2023-03-01T01:05:11;13.70;;;10.10;;
3337;SDS011;1682;49.286;10.788;2023-03-01T01:07:38;18.03;;;9.17;;
3337;SDS011;1682;49.286;10.788;2023-03-01T01:10:06;12.77;;;9.10;;
3337;SDS011;1682;49.286;10.788;2023-03-01T01:12:34;12.80;;;10.37;;
3337;SDS011;1682;49.286;10.788;2023-03-01T01:15:02;18.23;;;9.40;;
3337;SDS011;1682;49.286;10.788;2023-03-01T01:17:29;17.60;;;9.80;;
3337;SDS011;1682;49.286;10.788;2023-03-01T01:19:57;12.67;;;8.40;;
3337;SDS011;1682;49.286;10.788;2023-03-01T01:22:24;16.60;;;10.83;;
3337;SDS011;1682;49.286;10.788;2023-03-01T01:24:51;12.13;;;9.97;;
3337;SDS011;1682;49.286;10.788;2023-03-01T01:27:18;18.10;;;9.63;;
3337;SDS011;1682;49.286;10.788;2023-03-01T01:29:47;19.30;;;11.20;;
3337;SDS011;1682;49.286;10.788;2023-03-01T01:32:14;17.63;;;9.43;;
3337;SDS011;1682;49.286;10.788;2023-03-01T01:34:41;12.07;;;8.23;;
3337;SDS011;1682;49.286;10.788;2023-03-01T01:37:08;11.03;;;8.47;;
3337;SDS011;1682;49.286;10.788;2023-03-01T01:39:36;14.83;;;9.93;;
3337;SDS011;1682;49.286;10.788;2023-03-01T01:42:03;15.53;;;10.93;;
3337;SDS011;1682;49.286;10.788;2023-03-01T01:44:30;16.50;;;9.70;;
3337;SDS011;1682;49.286;10.788;2023-03-01T01:47:00;15.37;;;9.37;;
3337;SDS011;1682;49.286;10.788;2023-03-01T01:49:30;13.97;;;8.97;;
3337;SDS011;1682;49.286;10.788;2023-03-01T01:52:03;26.47;;;13.50;;
3337;SDS011;1682;49.286;10.788;2023-03-01T01:54:34;17.43;;;8.70;;
3337;SDS011;1682;49.286;10.788;2023-03-01T01:57:03;12.60;;;8.60;;
3337;SDS011;1682;49.286;10.788;2023-03-01T01:59:33;10.70;;;8.33;;
3337;SDS011;1682;49.286;10.788;2023-03-01T02:02:02;19.70;;;9.40;;
3337;SDS011;1682;49.286;10.788;2023-03-01T02:04:31;14.33;;;9.43;;
3337;SDS011;1682;49.286;10.788;2023-03-01T02:07:01;22.40;;;11.33;;
3337;SDS011;1682;49.286;10.788;2023-03-01T02:09:29;17.13;;;10.57;;
3337;SDS011;1682;49.286;10.788;2023-03-01T02:11:57;12.57;;;9.67;;
3337;SDS011;1682;49.286;10.788;2023-03-01T02:14:25;15.50;;;10.00;;
3337;SDS011;1682;49.286;10.788;2023-03-01T02:16:52;21.20;;;10.47;;
3337;SDS011;1682;49.286;10.788;2023-03-01T02:19:23;13.50;;;8.50;;
3337;SDS011;1682;49.286;10.788;2023-03-01T02:21:55;14.37;;;9.60;;
3337;SDS011;1682;49.286;10.788;2023-03-01T02:24:28;15.10;;;9.77;;
3337;SDS011;1682;49.286;10.788;2023-03-01T02:26:59;14.00;;;8.57;;
3337;SDS011;1682;49.286;10.788;2023-03-01T02:29:28;17.80;;;11.07;;
3337;SDS011;1682;49.286;10.788;2023-03-01T02:31:56;14.87;;;8.00;;
3337;SDS011;1682;49.286;10.788;2023-03-01T02:34:25;13.03;;;9.10;;
3337;SDS011;1682;49.286;10.788;2023-03-01T02:36:55;15.83;;;7.73;;
3337;SDS011;1682;49.286;10.788;2023-03-01T02:39:23;13.53;;;9.67;;
3337;SDS011;1682;49.286;10.788;2023-03-01T02:41:52;18.93;;;10.20;;
3337;SDS011;1682;49.286;10.788;2023-03-01T02:44:20;17.53;;;10.40;;
3337;SDS011;1682;49.286;10.788;2023-03-01T02:46:49;18.83;;;9.57;;
3337;SDS011;1682;49.286;10.788;2023-03-01T02:49:18;16.53;;;12.00;;
3337;SDS011;1682;49.286;10.788;2023-03-01T02:51:48;12.20;;;7.80;;
3337;SDS011;1682;49.286;10.788;2023-03-01T02:54:21;14.20;;;8.00;;
3337;SDS011;1682;49.286;10.788;2023-03-01T02:56:51;10.63;;;7.60;;
3337;SDS011;1682;49.286;10.788;2023-03-01T02:59:19;10.90;;;7.47;;
3337;SDS011;1682;49.286;10.788;2023-03-01T03:01:48;11.93;;;9.20;;
3337;SDS011;1682;49.286;10.788;2023-03-01T03:04:16;11.50;;;7.47;;
3337;SDS011;1682;49.286;10.788;2023-03-01T03:06:44;13.43;;;8.80;;
3337;SDS011;1682;49.286;10.788;2023-03-01T03:09:12;17.57;;;12.30;;
3337;SDS011;1682;49.286;10.788;2023-03-01T03:11:40;12.33;;;7.73;;
3337;SDS011;1682;49.286;10.788;2023-03-01T03:14:08;31.77;;;9.00;;
3337;SDS011;1682;49.286;10.788;2023-03-01T03:16:39;12.00;;;8.00;;
3337;SDS011;1682;49.286;10.788;2023-03-01T03:19:07;14.43;;;9.40;;
3337;SDS011;1682;49.286;10.788;2023-03-01T03:21:34;16.30;;;12.50;;
3337;SDS011;1682;49.286;10.788;2023-03-01T03:24:02;19.93;;;11.30;;
3337;SDS011;1682;49.286;10.788;2023-03-01T03:26:30;16.30;;;11.20;;
3337;SDS011;1682;49.286;10.788;2023-03-01T03:28:57;16.70;;;10.83;;
3337;SDS011;1682;49.286;10.788;2023-03-01T03:31:24;14.90;;;11.03;;
3337;SDS011;1682;49.286;10.788;2023-03-01T03:33:52;16.80;;;13.33;;
3337;SDS011;1682;49.286;10.788;2023-03-01T03:36:21;17.43;;;11.00;;
3337;SDS011;1682;49.286;10.788;2023-03-01T03:38:48;10.43;;;8.67;;
3337;SDS011;1682;49.286;10.788;2023-03-01T03:41:16;23.10;;;11.20;;
3337;SDS011;1682;49.286;10.788;2023-03-01T03:43:43;10.53;;;6.77;;
3337;SDS011;1682;49.286;10.788;2023-03-01T03:46:10;19.23;;;11.80;;
3337;SDS011;1682;49.286;10.788;2023-03-01T03:48:39;22.20;;;13.47;;
3337;SDS011;1682;49.286;10.788;2023-03-01T03:51:07;11.27;;;6.83;;
3337;SDS011;1682;49.286;10.788;2023-03-01T03:53:37;9.73;;;7.50;;
3337;SDS011;1682;49.286;10.788;2023-03-01T03:56:05;22.93;;;11.37;;
3337;SDS011;1682;49.286;10.788;2023-03-01T03:58:33;16.20;;;12.30;;
3337;SDS011;1682;49.286;10.788;2023-03-01T04:01:00;19.57;;;11.80;;
3337;SDS011;1682;49.286;10.788;2023-03-01T04:03:28;13.63;;;9.80;;
3337;SDS011;1682;49.286;10.788;2023-03-01T04:06:00;15.80;;;8.70;;
3337;SDS011;1682;49.286;10.788;2023-03-01T04:08:27;9.80;;;8.20;;
3337;SDS011;1682;49.286;10.788;2023-03-01T04:10:58;10.87;;;9.20;;
3337;SDS011;1682;49.286;10.788;2023-03-01T04:13:46;16.00;;;10.23;;
3337;SDS011;1682;49.286;10.788;2023-03-01T04:16:13;10.83;;;8.40;;
3337;SDS011;1682;49.286;10.788;2023-03-01T04:18:40;14.73;;;9.60;;
3337;SDS011;1682;49.286;10.788;2023-03-01T04:21:08;19.00;;;12.53;;
3337;SDS011;1682;49.286;10.788;2023-03-01T04:23:36;23.40;;;11.10;;
3337;SDS011;1682;49.286;10.788;2023-03-01T04:26:04;22.10;;;13.27;;
3337;SDS011;1682;49.286;10.788;2023-03-01T04:28:32;21.20;;;11.77;;
3337;SDS011;1682;49.286;10.788;2023-03-01T04:31:02;21.60;;;10.57;;
3337;SDS011;1682;49.286;10.788;2023-03-01T04:33:37;18.10;;;12.73;;
3337;SDS011;1682;49.286;10.788;2023-03-01T04:36:05;18.43;;;11.10;;
3337;SDS011;1682;49.286;10.788;2023-03-01T04:38:34;17.47;;;12.60;;
3337;SDS011;1682;49.286;10.788;2023-03-01T04:41:05;23.90;;;12.20;;
3337;SDS011;1682;49.286;10.788;2023-03-01T04:43:33;20.73;;;11.63;;
3337;SDS011;1682;49.286;10.788;2023-03-01T04:46:01;19.10;;;12.27;;
3337;SDS011;1682;49.286;10.788;2023-03-01T04:48:29;19.20;;;11.10;;
3337;SDS011;1682;49.286;10.788;2023-03-01T04:50:56;18.67;;;11.10;;
3337;SDS011;1682;49.286;10.788;2023-03-01T04:53:24;20.30;;;12.13;;
3337;SDS011;1682;49.286;10.788;2023-03-01T04:55:52;18.63;;;13.70;;
3337;SDS011;1682;49.286;10.788;2023-03-01T04:58:21;17.40;;;11.07;;
3337;SDS011;1682;49.286;10.788;2023-03-01T05:00:49;17.70;;;10.00;;
3337;SDS011;1682;49.286;10.788;2023-03-01T05:03:16;23.57;;;13.33;;
3337;SDS011;1682;49.286;10.788;2023-03-01T05:05:44;27.97;;;14.57;;
3337;SDS011;1682;49.286;10.788;2023-03-01T05:08:12;28.27;;;15.13;;
3337;SDS011;1682;49.286;10.788;2023-03-01T05:10:43;36.80;;;18.90;;
3337;SDS011;1682;49.286;10.788;2023-03-01T05:13:12;36.43;;;18.50;;
3337;SDS011;1682;49.286;10.788;2023-03-01T05:15:41;42.60;;;20.63;;
3337;SDS011;1682;49.286;10.788;2023-03-01T05:18:08;31.10;;;17.83;;
3337;SDS011;1682;49.286;10.788;2023-03-01T05:20:36;30.23;;;17.07;;
3337;SDS011;1682;49.286;10.788;2023-03-01T05:23:04;32.93;;;17.63;;
3337;SDS011;1682;49.286;10.788;2023-03-01T05:25:31;31.03;;;16.17;;
3337;SDS011;1682;49.286;10.788;2023-03-01T05:27:59;33.97;;;18.40;;
3337;SDS011;1682;49.286;10.788;2023-03-01T05:30:29;33.50;;;17.10;;
3337;SDS011;1682;49.286;10.788;2023-03-01T05:32:59;31.47;;;16.20;;
3337;SDS011;1682;49.286;10.788;2023-03-01T05:35:26;28.80;;;15.50;;
3337;SDS011;1682;49.286;10.788;2023-03-01T05:37:54;26.87;;;14.57;;
3337;SDS011;1682;49.286;10.788;2023-03-01T05:40:22;20.67;;;14.10;;
3337;SDS011;1682;49.286;10.788;2023-03-01T05:42:51;29.13;;;13.70;;
3337;SDS011;1682;49.286;10.788;2023-03-01T05:45:19;29.40;;;14.90;;
3337;SDS011;1682;49.286;10.788;2023-03-01T05:47:47;22.13;;;14.63;;
3337;SDS011;1682;49.286;10.788;2023-03-01T05:50:17;23.50;;;14.23;;
3337;SDS011;1682;49.286;10.788;2023-03-01T05:52:45;24.03;;;13.47;;
3337;SDS011;1682;49.286;10.788;2023-03-01T05:55:13;22.80;;;12.90;;
3337;SDS011;1682;49.286;10.788;2023-03-01T05:57:40;27.33;;;14.57;;
3337;SDS011;1682;49.286;10.788;2023-03-01T06:00:08;17.13;;;10.47;;
3337;SDS011;1682;49.286;10.788;2023-03-01T06:02:36;19.40;;;13.77;;
3337;SDS011;1682;49.286;10.788;2023-03-01T06:05:03;19.73;;;12.50;;
3337;SDS011;1682;49.286;10.788;2023-03-01T06:07:32;18.63;;;12.90;;
3337;SDS011;1682;49.286;10.788;2023-03-01T06:10:00;21.70;;;13.33;;
3337;SDS011;1682;49.286;10.788;2023-03-01T06:12:29;18.23;;;12.70;;
3337;SDS011;1682;49.286;10.788;2023-03-01T06:14:57;18.00;;;12.47;;
3337;SDS011;1682;49.286;10.788;2023-03-01T06:17:24;18.37;;;12.97;;
3337;SDS011;1682;49.286;10.788;2023-03-01T06:19:52;24.13;;;14.33;;
3337;SDS011;1682;49.286;10.788;2023-03-01T06:22:20;19.10;;;13.57;;
3337;SDS011;1682;49.286;10.788;2023-03-01T06:24:48;23.00;;;12.43;;
3337;SDS011;1682;49.286;10.788;2023-03-01T06:27:16;22.07;;;14.50;;
3337;SDS011;1682;49.286;10.788;2023-03-01T06:29:43;20.07;;;12.27;;
3337;SDS011;1682;49.286;10.788;2023-03-01T06:32:10;20.93;;;12.00;;
3337;SDS011;1682;49.286;10.788;2023-03-01T06:34:38;17.30;;;13.00;;
3337;SDS011;1682;49.286;10.788;2023-03-01T06:37:05;22.27;;;14.37;;
3337;SDS011;1682;49.286;10.788;2023-03-01T06:39:33;17.37;;;12.83;;
3337;SDS011;1682;49.286;10.788;2023-03-01T06:42:02;22.50;;;13.90;;
3337;SDS011;1682;49.286;10.788;2023-03-01T06:44:29;19.23;;;12.37;;
3337;SDS011;1682;49.286;10.788;2023-03-01T06:46:56;18.80;;;12.13;;
3337;SDS011;1682;49.286;10.788;2023-03-01T06:49:24;19.77;;;11.60;;
3337;SDS011;1682;49.286;10.788;2023-03-01T06:51:51;18.30;;;12.60;;
3337;SDS011;1682;49.286;10.788;2023-03-01T06:54:18;23.13;;;12.97;;
3337;SDS011;1682;49.286;10.788;2023-03-01T06:56:47;24.50;;;13.20;;
3337;SDS011;1682;49.286;10.788;2023-03-01T06:59:16;16.70;;;11.53;;
3337;SDS011;1682;49.286;10.788;2023-03-01T07:01:43;19.67;;;10.60;;
3337;SDS011;1682;49.286;10.788;2023-03-01T07:04:11;23.63;;;13.03;;
3337;SDS011;1682;49.286;10.788;2023-03-01T07:06:38;18.50;;;11.60;;
3337;SDS011;1682;49.286;10.788;2023-03-01T07:09:05;19.00;;;14.00;;
3337;SDS011;1682;49.286;10.788;2023-03-01T07:11:32;23.67;;;14.60;;
3337;SDS011;1682;49.286;10.788;2023-03-01T07:14:00;16.23;;;10.43;;
3337;SDS011;1682;49.286;10.788;2023-03-01T07:16:28;12.10;;;9.03;;
3337;SDS011;1682;49.286;10.788;2023-03-01T07:18:56;17.43;;;10.80;;
3337;SDS011;1682;49.286;10.788;2023-03-01T07:21:42;10.23;;;7.00;;
3337;SDS011;1682;49.286;10.788;2023-03-01T07:24:30;26.77;;;12.10;;
3337;SDS011;1682;49.286;10.788;2023-03-01T07:27:17;18.87;;;9.73;;
3337;SDS011;1682;49.286;10.788;2023-03-01T07:30:05;14.60;;;8.47;;
3337;SDS011;1682;49.286;10.788;2023-03-01T07:32:54;19.67;;;10.83;;
3337;SDS011;1682;49.286;10.788;2023-03-01T07:35:21;14.27;;;8.50;;
3337;SDS011;1682;49.286;10.788;2023-03-01T07:37:49;16.73;;;9.77;;
3337;SDS011;1682;49.286;10.788;2023-03-01T07:40:16;16.00;;;10.20;;
3337;SDS011;1682;49.286;10.788;2023-03-01T07:42:43;24.60;;;11.07;;
3337;SDS011;1682;49.286;10.788;2023-03-01T07:45:11;18.93;;;10.63;;
3337;SDS011;1682;49.286;10.788;2023-03-01T07:47:38;15.77;;;10.47;;
3337;SDS011;1682;49.286;10.788;2023-03-01T07:50:08;16.90;;;11.37;;
3337;SDS011;1682;49.286;10.788;2023-03-01T07:52:36;22.40;;;11.57;;
3337;SDS011;1682;49.286;10.788;2023-03-01T07:55:03;17.13;;;11.83;;
3337;SDS011;1682;49.286;10.788;2023-03-01T07:57:30;19.00;;;12.60;;
3337;SDS011;1682;49.286;10.788;2023-03-01T07:59:57;15.63;;;11.10;;
3337;SDS011;1682;49.286;10.788;2023-03-01T08:02:25;18.80;;;11.50;;
3337;SDS011;1682;49.286;10.788;2023-03-01T08:04:52;21.10;;;13.10;;
3337;SDS011;1682;49.286;10.788;2023-03-01T08:07:20;22.33;;;12.07;;
3337;SDS011;1682;49.286;10.788;2023-03-01T08:09:48;25.23;;;11.77;;
3337;SDS011;1682;49.286;10.788;2023-03-01T08:12:15;20.73;;;12.53;;
3337;SDS011;1682;49.286;10.788;2023-03-01T08:14:42;16.63;;;11.40;;
3337;SDS011;1682;49.286;10.788;2023-03-01T08:17:09;17.50;;;11.77;;
3337;SDS011;1682;49.286;10.788;2023-03-01T08:19:36;32.00;;;14.23;;
3337;SDS011;1682;49.286;10.788;2023-03-01T08:22:04;20.73;;;11.60;;
3337;SDS011;1682;49.286;10.788;2023-03-01T08:24:32;14.80;;;10.73;;
3337;SDS011;1682;49.286;10.788;2023-03-01T08:26:59;20.10;;;11.20;;
3337;SDS011;1682;49.286;10.788;2023-03-01T08:29:27;23.43;;;10.87;;
3337;SDS011;1682;49.286;10.788;2023-03-01T08:31:55;18.30;;;11.33;;
3337;SDS011;1682;49.286;10.788;2023-03-01T08:34:22;16.07;;;10.60;;
3337;SDS011;1682;49.286;10.788;2023-03-01T08:36:49;18.83;;;11.60;;
3337;SDS011;1682;49.286;10.788;2023-03-01T08:39:17;19.47;;;11.30;;
3337;SDS011;1682;49.286;10.788;2023-03-01T08:41:46;15.27;;;10.80;;
3337;SDS011;1682;49.286;10.788;2023-03-01T08:44:14;15.30;;;10.80;;
3337;SDS011;1682;49.286;10.788;2023-03-01T08:46:42;20.73;;;14.73;;
3337;SDS011;1682;49.286;10.788;2023-03-01T08:49:11;17.27;;;12.30;;
3337;SDS011;1682;49.286;10.788;2023-03-01T08:51:39;14.83;;;10.30;;
3337;SDS011;1682;49.286;10.788;2023-03-01T08:54:09;20.67;;;12.60;;
3337;SDS011;1682;49.286;10.788;2023-03-01T08:56:41;17.50;;;11.40;;
3337;SDS011;1682;49.286;10.788;2023-03-01T08:59:10;30.63;;;11.83;;
3337;SDS011;1682;49.286;10.788;2023-03-01T09:01:37;33.73;;;11.83;;
3337;SDS011;1682;49.286;10.788;2023-03-01T09:04:05;16.57;;;11.97;;
3337;SDS011;1682;49.286;10.788;2023-03-01T09:06:32;15.30;;;10.53;;
3337;SDS011;1682;49.286;10.788;2023-03-01T09:09:00;27.30;;;11.87;;
3337;SDS011;1682;49.286;10.788;2023-03-01T09:11:28;19.70;;;12.40;;
3337;SDS011;1682;49.286;10.788;2023-03-01T09:13:55;25.17;;;13.47;;
3337;SDS011;1682;49.286;10.788;2023-03-01T09:16:24;21.33;;;12.20;;
3337;SDS011;1682;49.286;10.788;2023-03-01T09:18:52;25.23;;;13.33;;
3337;SDS011;1682;49.286;10.788;2023-03-01T09:21:20;19.73;;;11.13;;
3337;SDS011;1682;49.286;10.788;2023-03-01T09:23:48;16.10;;;11.87;;
3337;SDS011;1682;49.286;10.788;2023-03-01T09:26:16;17.67;;;13.37;;
3337;SDS011;1682;49.286;10.788;2023-03-01T09:28:44;20.30;;;12.53;;
3337;SDS011;1682;49.286;10.788;2023-03-01T09:31:12;30.73;;;14.37;;
3337;SDS011;1682;49.286;10.788;2023-03-01T09:33:40;27.87;;;13.40;;
3337;SDS011;1682;49.286;10.788;2023-03-01T09:36:10;23.93;;;14.43;;
3337;SDS011;1682;49.286;10.788;2023-03-01T09:38:37;21.40;;;13.37;;
3337;SDS011;1682;49.286;10.788;2023-03-01T09:41:09;16.30;;;11.60;;
3337;SDS011;1682;49.286;10.788;2023-03-01T09:43:42;22.93;;;13.67;;
3337;SDS011;1682;49.286;10.788;2023-03-01T09:46:11;22.23;;;13.97;;
3337;SDS011;1682;49.286;10.788;2023-03-01T09:48:43;20.63;;;12.70;;
3337;SDS011;1682;49.286;10.788;2023-03-01T09:51:17;19.27;;;11.53;;
3337;SDS011;1682;49.286;10.788;2023-03-01T09:53:45;16.87;;;11.00;;
3337;SDS011;1682;49.286;10.788;2023-03-01T09:56:13;20.00;;;12.83;;
3337;SDS011;1682;49.286;10.788;2023-03-01T09:58:47;22.10;;;13.83;;
3337;SDS011;1682;49.286;10.788;2023-03-01T10:01:26;21.83;;;13.77;;
3337;SDS011;1682;49.286;10.788;2023-03-01T10:04:11;22.70;;;11.70;;
3337;SDS011;1682;49.286;10.788;2023-03-01T10:06:39;18.47;;;11.73;;
3337;SDS011;1682;49.286;10.788;2023-03-01T10:09:10;17.60;;;11.53;;
3337;SDS011;1682;49.286;10.788;2023-03-01T10:11:39;16.97;;;11.50;;
3337;SDS011;1682;49.286;10.788;2023-03-01T10:14:07;21.30;;;11.77;;
3337;SDS011;1682;49.286;10.788;2023-03-01T10:16:41;19.60;;;11.43;;
3337;SDS011;1682;49.286;10.788;2023-03-01T10:19:15;13.90;;;11.90;;
3337;SDS011;1682;49.286;10.788;2023-03-01T10:21:51;16.33;;;11.57;;
3337;SDS011;1682;49.286;10.788;2023-03-01T10:24:18;19.13;;;11.90;;
3337;SDS011;1682;49.286;10.788;2023-03-01T10:26:54;22.00;;;11.60;;
3337;SDS011;1682;49.286;10.788;2023-03-01T10:29:23;18.90;;;12.00;;
3337;SDS011;1682;49.286;10.788;2023-03-01T10:31:51;17.97;;;12.30;;
3337;SDS011;1682;49.286;10.788;2023-03-01T10:34:29;20.40;;;10.80;;
3337;SDS011;1682;49.286;10.788;2023-03-01T10:36:57;18.00;;;11.37;;
3337;SDS011;1682;49.286;10.788;2023-03-01T10:39:25;15.67;;;10.10;;
3337;SDS011;1682;49.286;10.788;2023-03-01T10:41:57;25.93;;;13.00;;
3337;SDS011;1682;49.286;10.788;2023-03-01T10:47:17;17.33;;;12.10;;
3337;SDS011;1682;49.286;10.788;2023-03-01T10:52:36;15.97;;;11.03;;
3337;SDS011;1682;49.286;10.788;2023-03-01T10:55:04;21.43;;;13.07;;
3337;SDS011;1682;49.286;10.788;2023-03-01T10:57:45;16.53;;;10.50;;
3337;SDS011;1682;49.286;10.788;2023-03-01T11:00:18;22.37;;;12.27;;
3337;SDS011;1682;49.286;10.788;2023-03-01T11:02:47;16.63;;;11.83;;
3337;SDS011;1682;49.286;10.788;2023-03-01T11:05:19;17.50;;;12.30;;
3337;SDS011;1682;49.286;10.788;2023-03-01T11:07:51;19.17;;;11.80;;
3337;SDS011;1682;49.286;10.788;2023-03-01T11:10:19;15.53;;;10.80;;
3337;SDS011;1682;49.286;10.788;2023-03-01T11:12:46;21.70;;;11.63;;
3337;SDS011;1682;49.286;10.788;2023-03-01T11:15:21;18.20;;;11.47;;
3337;SDS011;1682;49.286;10.788;2023-03-01T11:17:49;18.23;;;11.30;;
3337;SDS011;1682;49.286;10.788;2023-03-01T11:20:19;17.77;;;12.70;;
3337;SDS011;1682;49.286;10.788;2023-03-01T11:22:48;19.30;;;11.83;;
3337;SDS011;1682;49.286;10.788;2023-03-01T11:25:19;14.60;;;11.77;;
3337;SDS011;1682;49.286;10.788;2023-03-01T11:27:46;16.97;;;12.07;;
3337;SDS011;1682;49.286;10.788;2023-03-01T11:30:15;14.70;;;11.40;;
3337;SDS011;1682;49.286;10.788;2023-03-01T11:32:46;15.20;;;9.90;;
3337;SDS011;1682;49.286;10.788;2023-03-01T11:35:16;19.50;;;10.57;;
3337;SDS011;1682;49.286;10.788;2023-03-01T11:37:48;18.43;;;11.17;;
3337;SDS011;1682;49.286;10.788;2023-03-01T11:40:21;21.70;;;10.10;;
3337;SDS011;1682;49.286;10.788;2023-03-01T11:42:52;26.00;;;13.47;;
3337;SDS011;1682;49.286;10.788;2023-03-01T11:45:23;13.90;;;9.93;;
3337;SDS011;1682;49.286;10.788;2023-03-01T11:47:55;15.47;;;10.60;;
3337;SDS011;1682;49.286;10.788;2023-03-01T11:50:28;17.70;;;10.30;;
3337;SDS011;1682;49.286;10.788;2023-03-01T11:53:01;14.03;;;9.57;;
3337;SDS011;1682;49.286;10.788;2023-03-01T11:55:40;20.33;;;11.60;;
3337;SDS011;1682;49.286;10.788;2023-03-01T11:58:17;16.13;;;11.30;;
3337;SDS011;1682;49.286;10.788;2023-03-01T12:03:37;17.43;;;10.20;;
3337;SDS011;1682;49.286;10.788;2023-03-01T12:06:17;17.60;;;10.13;;
3337;SDS011;1682;49.286;10.788;2023-03-01T12:08:52;14.00;;;11.97;;
3337;SDS011;1682;49.286;10.788;2023-03-01T12:11:26;17.03;;;10.20;;
3337;SDS011;1682;49.286;10.788;2023-03-01T12:14:08;14.97;;;12.10;;
3337;SDS011;1682;49.286;10.788;2023-03-01T12:16:45;26.13;;;11.40;;
3337;SDS011;1682;49.286;10.788;2023-03-01T12:19:21;16.40;;;11.63;;
3337;SDS011;1682;49.286;10.788;2023-03-01T12:21:59;22.63;;;11.73;;
3337;SDS011;1682;49.286;10.788;2023-03-01T12:30:04;19.87;;;12.67;;
3337;SDS011;1682;49.286;10.788;2023-03-01T12:32:45;16.73;;;10.40;;
3337;SDS011;1682;49.286;10.788;2023-03-01T12:35:18;15.87;;;11.93;;
3337;SDS011;1682;49.286;10.788;2023-03-01T12:37:51;16.10;;;11.30;;
3337;SDS011;1682;49.286;10.788;2023-03-01T12:40:29;15.33;;;12.07;;
3337;SDS011;1682;49.286;10.788;2023-03-01T12:43:01;16.93;;;11.00;;
3337;SDS011;1682;49.286;10.788;2023-03-01T12:45:34;15.30;;;10.73;;
3337;SDS011;1682;49.286;10.788;2023-03-01T12:48:11;20.03;;;11.57;;
3337;SDS011;1682;49.286;10.788;2023-03-01T12:50:39;15.97;;;12.30;;
3337;SDS011;1682;49.286;10.788;2023-03-01T12:53:21;13.97;;;12.53;;
3337;SDS011;1682;49.286;10.788;2023-03-01T12:55:49;16.37;;;11.93;;
3337;SDS011;1682;49.286;10.788;2023-03-01T12:58:20;16.40;;;12.40;;
3337;SDS011;1682;49.286;10.788;2023-03-01T13:00:55;24.30;;;12.73;;
3337;SDS011;1682;49.286;10.788;2023-03-01T13:03:26;16.50;;;11.47;;
3337;SDS011;1682;49.286;10.788;2023-03-01T13:06:00;16.90;;;12.03;;
3337;SDS011;1682;49.286;10.788;2023-03-01T13:08:29;12.73;;;10.93;;
3337;SDS011;1682;49.286;10.788;2023-03-01T13:10:59;14.57;;;10.93;;
3337;SDS011;1682;49.286;10.788;2023-03-01T13:13:27;25.80;;;12.10;;
3337;SDS011;1682;49.286;10.788;2023-03-01T13:15:56;24.00;;;11.10;;
3337;SDS011;1682;49.286;10.788;2023-03-01T13:18:28;15.27;;;11.43;;
3337;SDS011;1682;49.286;10.788;2023-03-01T13:20:56;18.40;;;13.23;;
3337;SDS011;1682;49.286;10.788;2023-03-01T13:23:25;13.53;;;11.33;;
3337;SDS011;1682;49.286;10.788;2023-03-01T13:26:12;14.53;;;9.97;;
3337;SDS011;1682;49.286;10.788;2023-03-01T13:28:45;14.73;;;11.13;;
3337;SDS011;1682;49.286;10.788;2023-03-01T13:33:56;20.40;;;11.73;;
3337;SDS011;1682;49.286;10.788;2023-03-01T13:39:28;11.13;;;9.47;;
3337;SDS011;1682;49.286;10.788;2023-03-01T13:41:57;12.17;;;10.27;;
3337;SDS011;1682;49.286;10.788;2023-03-01T13:44:26;12.30;;;10.83;;
3337;SDS011;1682;49.286;10.788;2023-03-01T13:46:56;19.17;;;11.67;;
3337;SDS011;1682;49.286;10.788;2023-03-01T13:49:26;12.77;;;10.60;;
3337;SDS011;1682;49.286;10.788;2023-03-01T13:51:54;13.20;;;9.87;;
3337;SDS011;1682;49.286;10.788;2023-03-01T13:54:24;18.30;;;11.53;;
3337;SDS011;1682;49.286;10.788;2023-03-01T13:56:52;13.17;;;11.17;;
3337;SDS011;1682;49.286;10.788;2023-03-01T13:59:20;12.67;;;10.47;;
3337;SDS011;1682;49.286;10.788;2023-03-01T14:01:51;10.93;;;9.80;;
3337;SDS011;1682;49.286;10.788;2023-03-01T14:04:20;13.60;;;11.27;;
3337;SDS011;1682;49.286;10.788;2023-03-01T14:06:49;11.70;;;9.60;;
3337;SDS011;1682;49.286;10.788;2023-03-01T14:09:17;15.90;;;10.60;;
3337;SDS011;1682;49.286;10.788;2023-03-01T14:11:52;15.77;;;9.73;;
3337;SDS011;1682;49.286;10.788;2023-03-01T14:17:16;10.73;;;9.50;;
3337;SDS011;1682;49.286;10.788;2023-03-01T14:19:45;11.67;;;10.57;;
3337;SDS011;1682;49.286;10.788;2023-03-01T14:22:16;16.83;;;10.00;;
3337;SDS011;1682;49.286;10.788;2023-03-01T14:24:46;11.43;;;9.00;;
3337;SDS011;1682;49.286;10.788;2023-03-01T14:27:14;13.83;;;9.97;;
3337;SDS011;1682;49.286;10.788;2023-03-01T14:29:42;14.07;;;9.90;;
3337;SDS011;1682;49.286;10.788;2023-03-01T14:32:16;14.03;;;9.10;;
3337;SDS011;1682;49.286;10.788;2023-03-01T14:34:45;10.33;;;9.00;;
3337;SDS011;1682;49.286;10.788;2023-03-01T14:37:21;11.40;;;10.03;;
3337;SDS011;1682;49.286;10.788;2023-03-01T14:39:48;17.50;;;12.10;;
3337;SDS011;1682;49.286;10.788;2023-03-01T14:42:16;13.73;;;11.97;;
3337;SDS011;1682;49.286;10.788;2023-03-01T14:44:45;17.20;;;12.30;;
3337;SDS011;1682;49.286;10.788;2023-03-01T14:47:14;13.53;;;11.13;;
3337;SDS011;1682;49.286;10.788;2023-03-01T14:49:42;14.47;;;10.43;;
3337;SDS011;1682;49.286;10.788;2023-03-01T14:52:17;20.27;;;10.93;;
3337;SDS011;1682;49.286;10.788;2023-03-01T14:54:47;13.10;;;10.73;;
3337;SDS011;1682;49.286;10.788;2023-03-01T14:57:15;12.53;;;9.37;;
3337;SDS011;1682;49.286;10.788;2023-03-01T14:59:43;19.60;;;12.40;;
3337;SDS011;1682;49.286;10.788;2023-03-01T15:02:11;14.20;;;10.33;;
3337;SDS011;1682;49.286;10.788;2023-03-01T15:04:42;15.13;;;11.73;;
3337;SDS011;1682;49.286;10.788;2023-03-01T15:07:09;11.50;;;10.23;;
3337;SDS011;1682;49.286;10.788;2023-03-01T15:09:39;14.77;;;9.77;;
3337;SDS011;1682;49.286;10.788;2023-03-01T15:14:54;18.30;;;11.37;;
3337;SDS011;1682;49.286;10.788;2023-03-01T15:17:26;20.70;;;10.60;;